Impacts TAF Board
For situational awareness. Not to be used for flight planning purposes.
IDs:

KMEM - Memphis Intl, TN, US

Issued at 2322 UTC 18 Nov 2018
Updated at 2338 UTC 18 Nov 2018
Potential Impact None Slight Moderate High
Time<<20/00Z 20/01Z 20/02Z 20/03Z 20/04Z 20/05Z 20/06Z 20/07Z 20/08Z 20/09Z 20/10Z 20/11Z 20/12Z
Type PRVL PRVL PRVL PRVL PRVL PRVL
VIS >6 >6 >6 >6 >6 >6
CIG 40 40 40 40 40 40
Cover BKN BKN BKN BKN BKN BKN
FltCat VFR VFR VFR VFR VFR VFR
WX -- -- -- -- -- --
WDir 290 290 290 290 290 290
WSpd 5 5 5 5 5 5
WGst -- -- -- -- -- --
Raw TAF
KMEM 182322Z 1900/2006 VRB05KT P6SM VCSH FEW025 BKN080
  FM190600 VRB03KT P6SM VCSH FEW009 OVC012
  TEMPO 1908/1912 5SM -DZ BR BKN009
  FM191500 29005KT P6SM BKN018
  FM191900 28007KT P6SM BKN025
  FM192300 29005KT P6SM BKN040


METAR Board
Radar Display
Forecast Discussion
For situational awareness. Not to be used for flight planning purposes.